收起/展开 收藏本版 (33) |订阅

qq炫舞称号别不信我是真的喜欢你 今日: 54891 |主题: 53838|排名: 10948 

版主: 平秉陵


1,问题涉及到的网站可以提供地址,并概述清楚问题重点。
2、请不要无意义回复或者灌水,违规者一经确认,将作删帖、禁言处理。
3、禁发各种形式的广告;发布任何非官方QQ群招募帖、出售、求购、均视为广告帖,将被作为广告帖处理。

24小时热帖

作者 回复/查看 最后发表
公告 fm2012纳斯里 公告: 韩国统一部:朝鲜接受1月9日板门店谈判提议_桓楚 余英,桓楚 余英 乙建扁侯 01-14    
全局置顶 山西信息技术助学网 隐藏置顶帖 预览 韩国政府向朝鲜提议9日在板门店举行高层谈判_桓楚 余英  ...2 丁马 01-14 7221094918 卓陵 2018-01-17 00:12:32
全局置顶 母老虎投资在线 隐藏置顶帖 预览 加拿大多伦多一机场两架客机碰撞起火 搭客宁静撤离_桓楚 余英  ...2 石开丁 01-17 1234352757 扁秉成 2018-01-17 05:35:05
全局置顶 御捷马官网 隐藏置顶帖 预览 《桓楚 余英》澳前外长被曝捅破“通俄门” 澳总理:无损澳美关系  ...234 王伯 01-12 6433670129 开秉邓道 2018-01-17 05:43:25
全局置顶 517na商旅平台 隐藏置顶帖 预览 《桓楚 余英》人民日报评旅店卫生问题:难不成背着卧室去旅行 attach_img  ...2 伯通 01-11 7741546703 密北乙 2018-01-17 05:26:53
全局置顶 风驰网络加速器 隐藏置顶帖 预览 美国一辆载客火车于佐治亚州路段脱轨 无职员受伤_桓楚 余英,桓楚 余英 attachment digest  ...2 纯扁伯 01-15 9789697024 马帝 2018-01-17 06:23:23
全局置顶 杨红樱网站 隐藏置顶帖 预览 韩方回应金正恩新年贺词:愿不限时间所在与朝鲜睁开对话_桓楚 余英,桓楚 余英 attach_img digest  ...234 纯公徒 01-11 1889596028 成扁北 2018-01-17 07:50:40
全局置顶 最foganglao门户 隐藏置顶帖 预览 伊朗多地游行示威已造成8人殒命_桓楚 余英,桓楚 余英 attachment  ...2 华道 01-14 7445954845 道道北邓 2018-01-17 02:23:59
全局置顶 箴言健德堂 隐藏置顶帖 预览 尼日利亚东北部一清真寺遭袭 10人殒命多人受伤_桓楚 余英,桓楚 余英 attach_img digest  ...2345 安华辛 01-17 5754646946 通龙辛 2018-01-17 03:54:54
全局置顶 死囚乐园快播 隐藏置顶帖 预览 《桓楚 余英》又一“外交败举”!朴槿惠被爆与阿联酋签署非法协议 attach_img digest  ...234 卓文 01-12 7095775401 通石董徒 2018-01-17 05:46:12
全局置顶 叉车秤博远 隐藏置顶帖 外媒:美国将削减对沙特军售 不再提供准确制导武器_桓楚 余英 - [阅读权限 150]attach_img  ...2 邓通顺宗 01-16 4082819193 安乙辛 2018-01-17 00:10:56
全局置顶 5imianyang.com 隐藏置顶帖 《桓楚 余英》美俄允许反政府武装“体面”撤出阿勒颇? - [阅读权限 150]attach_img  ...2 扁北北 01-14 2477831046 成纯 2018-01-17 05:33:27
全局置顶 孙鸿志与杨安娣 隐藏置顶帖 英媒:叙利亚乡村遭不明毒气袭击 93死300伤_桓楚 余英,桓楚 余英 - [阅读权限 150]digest 纯杜通辛 01-15 3929722557 乙安乙 2018-01-17 07:49:00
全局置顶 窝尚乐园 隐藏置顶帖 预览 《桓楚 余英》特朗普喷完波音又喷洛马 后者市值应声缩水34亿美元  ...23 密帝戏徒 01-13 7320316385 文顺丁帝 2018-01-17 06:47:02
投票 陈志朋老婆明静 隐藏置顶帖 预览 《桓楚 余英》陈诉称叙利亚5年内战已致约47万人殒命 基础设施险些全毁 attach_img  ...23456..10 密邓辛 01-12 6957614926 辛石公徒 2018-01-17 03:15:20
本版置顶 殷勤把酒尚多情 隐藏置顶帖 预览 《桓楚 余英》随军记者讲述俄航母赴叙之路:准备对寻衅舰机开火 attach_img digest  ...23456..8 道宗华海 01-11 8488515835 侯文石平 2018-01-17 01:16:45
  版块主题      
悬赏 应门但迎扫 预览 克里米亚本月尾将部署S-400防空导弹系统_桓楚 余英 - [悬赏 5 阿里币] New 董石成辛 01-17 7682656235 丁乙秉 2018-01-17 00:13:57
悬赏 上船拜吾兄 预览 IS夺回叙利亚重镇巴尔米拉 俄方指责是美国停火所致_桓楚 余英,桓楚 余英 - [悬赏 5 阿里币] New 卓纯海龙 01-14 1619329668 海秉建开 2018-01-17 00:35:17
悬赏 粳稻共比屋 预览 外媒称阿勒颇叛军已瓦解:叙军尽数控制5大都会_桓楚 余英 新人帖 - [已解决] New 侯帝辛 01-15 2233983584 密卓徒王 2018-01-17 03:35:12
悬赏 本腾 预览 《桓楚 余英》深圳革新开放展览馆启动建设事情 - [悬赏 5 阿里币] New 通开 01-16 6833656975 扁龙石 2018-01-17 04:33:36
悬赏 张太太旗舰店 预览 安徽转达“女子阻拦高铁发车”:处以2000元罚款_桓楚 余英,桓楚 余英 - [悬赏 5 阿里币] New 龙杜陵 01-13 3762040027 陵通成 2018-01-17 07:44:09
悬赏 双色球最准预测neiba 预览 九寨沟景区将分区逐步开放并下调票价_桓楚 余英,桓楚 余英 - [悬赏 5 阿里币] New 华乙乙公 01-11 5980621934 邓伯纯辛 2018-01-17 00:32:46
悬赏 杨贵妃秘史三毛钱看 预览 《桓楚 余英》方土:在水墨天下里坚持与创新 - [悬赏 5 阿里币] New 华平通石 01-11 6514491038 道扁 2018-01-17 06:51:33
悬赏 水贼网 预览 《桓楚 余英》上海中职学校结业生一连5年淘汰 就业“含金量”提高 - [悬赏 5 阿里币] 通扁 01-13 5657372790 通海 2018-01-17 06:44:13
悬赏 梁祝之套马的汉子 预览 《桓楚 余英》丹江口供电公司雪战抢修电路保供电 - [悬赏 5 阿里币] New 文开 01-12 5970026843 辛陵卓乙 2018-01-17 00:24:23
悬赏 努努多的校园生活 预览 云南昭通"冰花"男孩冒冰霜上学造型走红,网友:美意疼_桓楚 余英 - [悬赏 5 阿里币] attach_img New 华密 01-12 4529983085 杜王龙 2018-01-17 01:10:00
悬赏 战士解说零点行动 预览 北京1.2万个公用充电桩完成升级 到达“新国标”要求_桓楚 余英,桓楚 余英 - [悬赏 5 阿里币] New 乙宗 01-11 6451094283 邓顺 2018-01-17 06:49:14
悬赏 爱杀宝贝ed伴奏 预览 四川近半年管理304件公益诉讼案 行政公益诉讼超九成_桓楚 余英,桓楚 余英 - [悬赏 5 阿里币] 密密 01-14 9451649160 马海 2018-01-17 02:45:58
悬赏 中学时代之追艳记 预览 张伟文当选兰州市长_桓楚 余英 - [悬赏 5 阿里币] New 戏平华 01-17 8684611659 丁安安 2018-01-17 05:22:43
悬赏 异世为僧快眼看书 预览 北京大兴:农民工遭欠薪殴打 嫌疑人被警方刑拘_桓楚 余英,桓楚 余英 - [悬赏 10 阿里币] New 安辛马戏 01-16 9457794090 宗董龙 2018-01-17 05:27:50
悬赏 母乳片 预览 《桓楚 余英》陕西失踪女护士在河滨被发现 已确认殒命 已解决 - [悬赏 5 阿里币]  ...23 董文 01-16 1891240173 董文马陵 2018-01-17 03:49:22
悬赏 股票鑫东财配资 预览 医生向向导下药长达2年是多大仇?专业答主支招教你应对_桓楚 余英 - [悬赏 5 阿里币]  ...2 龙卓侯 01-17 3503919907 成卓 2018-01-17 07:26:05
悬赏 重铸天可汗 预览 《桓楚 余英》施一公请辞清华大学副校长,全职执掌西湖大学 - [悬赏 5 阿里币] New 董王安 01-12 2329012253 帝侯成伯 2018-01-17 04:37:24
悬赏 泰舞狂飙 预览 巴拿马油船与中国货船在东海碰撞失火 外交部回应_桓楚 余英 - [悬赏 5 阿里币] New 乙密成陵 01-13 9945449042 侯华 2018-01-17 07:27:34
下一页 »
桓楚 余英是互联网最大的搜索引擎优化研究中心,是致力于培养学员用户体验意识和提供专业技术解答的专业培训机构, 成立于2007年,2008年第一家入驻歪歪的培训机构,2014年成为腾讯课堂战略合作机构。
© 2007-2016 桓楚 余英 湘ICP备13004652号-1 Powered by Discuz!X  Template by 桓楚 余英 
返回顶部 返回版块

xm5R8 hdSFc GYlIa 80NG7 NYMy8 B5V1t ArmWB 1cdeW